Time;durP1;ratioP1;P1;durP2;ratioP2;P2;SDS_P1;SDS_P2;PMS_P1;PMS_P2;Temp;Humidity;BMP_temperature;BMP_pressure;BME280_temperature;BME280_humidity;BME280_pressure;Samples;Min_cycle;Max_cycle;Signal;HPM_P1;HPM_P2
2022/07/27 00:02:17;;;;;;;11.18;7.28;;;;;;;;;;4180999;85;28486;-88
2022/07/27 00:08:24;;;;;;;11.03;6.75;;;;;;;;;;4184019;85;28472;-88
2022/07/27 00:14:30;;;;;;;10.32;6.85;;;;;;;;;;4183412;85;28530;-88
2022/07/27 00:20:38;;;;;;;8.35;6.15;;;;;;;;;;4182550;85;28573;-87
2022/07/27 00:26:45;;;;;;;10.65;5.47;;;;;;;;;;4183578;85;28527;-87
2022/07/27 00:32:52;;;;;;;6.10;5.03;;;;;;;;;;4184268;85;28716;-87
2022/07/27 00:38:59;;;;;;;6.62;5.00;;;;;;;;;;4168624;85;28468;-88
2022/07/27 00:45:07;;;;;;;8.60;5.67;;;;;;;;;;4177670;85;28460;-88
2022/07/27 00:51:07;;;;;;;8.25;5.03;;;;;;;;;;4171334;85;28546;-88
2022/07/27 00:57:09;;;;;;;5.80;4.78;;;;;;;;;;4173327;84;28478;-90
2022/07/27 01:03:15;;;;;;;8.83;5.15;;;;;;;;;;4175471;85;28508;-89
2022/07/27 01:15:43;;;;;;;7.47;4.08;;;;;;;;;;4172650;84;28448;-89
2022/07/27 01:21:49;;;;;;;7.10;4.53;;;;;;;;;;4162738;84;28516;-89
2022/07/27 01:27:57;;;;;;;;;;;;;;;;;;4164500;84;28456;-89
2022/07/27 01:33:57;;;;;;;6.62;4.33;;;;;;;;;;4171745;84;20319;-88
2022/07/27 01:39:58;;;;;;;6.72;4.30;;;;;;;;;;4194436;84;28516;-88
2022/07/27 01:45:59;;;;;;;6.35;4.35;;;;;;;;;;4174058;85;28601;-89
2022/07/27 01:52:00;;;;;;;6.30;4.45;;;;;;;;;;4007691;89;28508;-88
2022/07/27 01:58:04;;;;;;;8.38;4.58;;;;;;;;;;4148309;85;28518;-87
2022/07/27 02:04:09;;;;;;;5.25;3.62;;;;;;;;;;4062183;87;28540;-88
2022/07/27 02:10:16;;;;;;;6.95;4.65;;;;;;;;;;4114232;86;28548;-88
2022/07/27 02:16:23;;;;;;;5.75;4.10;;;;;;;;;;4054378;86;28552;-88
2022/07/27 02:22:24;;;;;;;8.15;4.20;;;;;;;;;;4141804;85;28470;-89
2022/07/27 02:28:25;;;;;;;6.53;3.80;;;;;;;;;;4110050;85;28541;-89
2022/07/27 02:34:26;;;;;;;5.50;3.87;;;;;;;;;;4144808;82;28507;-88
2022/07/27 02:40:27;;;;;;;6.45;3.95;;;;;;;;;;4016197;87;28515;-87
2022/07/27 02:46:33;;;;;;;7.53;4.28;;;;;;;;;;4197158;85;28468;-87
2022/07/27 02:52:35;;;;;;;6.33;4.60;;;;;;;;;;4204289;84;28496;-87
2022/07/27 02:58:36;;;;;;;6.90;4.80;;;;;;;;;;4199128;84;28492;-88
2022/07/27 03:04:37;;;;;;;9.60;4.78;;;;;;;;;;4191246;85;28574;-89
2022/07/27 03:10:38;;;;;;;6.53;4.60;;;;;;;;;;4187634;85;28487;-90
2022/07/27 03:16:39;;;;;;;4.95;4.25;;;;;;;;;;4197776;84;28536;-90
2022/07/27 03:22:40;;;;;;;6.92;4.60;;;;;;;;;;4251741;84;28499;-89
2022/07/27 03:28:41;;;;;;;7.20;4.47;;;;;;;;;;4190625;84;28503;-89
2022/07/27 03:34:48;;;;;;;8.13;4.70;;;;;;;;;;4190736;85;28492;-91
2022/07/27 03:40:49;;;;;;;7.78;4.92;;;;;;;;;;4181718;84;28518;-89
2022/07/27 03:46:50;;;;;;;7.55;4.87;;;;;;;;;;4191117;85;28474;-89
2022/07/27 03:52:58;;;;;;;7.85;5.25;;;;;;;;;;4191688;85;28482;-87
2022/07/27 03:58:59;;;;;;;6.67;5.20;;;;;;;;;;4195057;84;28420;-86
2022/07/27 04:05:00;;;;;;;8.05;5.10;;;;;;;;;;4191361;83;28476;-88
2022/07/27 04:11:08;;;;;;;7.17;4.62;;;;;;;;;;4190655;85;28538;-89
2022/07/27 04:17:14;;;;;;;9.83;5.40;;;;;;;;;;4184833;85;28519;-89
2022/07/27 04:23:21;;;;;;;7.87;4.93;;;;;;;;;;4179502;85;28510;-87
2022/07/27 04:29:22;;;;;;;8.65;5.62;;;;;;;;;;4167937;85;28525;-89
2022/07/27 04:35:29;;;;;;;7.67;5.78;;;;;;;;;;4206339;85;28471;-90
2022/07/27 04:41:37;;;;;;;8.95;5.25;;;;;;;;;;4203811;85;28487;-87
2022/07/27 04:47:43;;;;;;;6.80;5.60;;;;;;;;;;4185305;85;28466;-86
2022/07/27 04:53:50;;;;;;;7.55;5.35;;;;;;;;;;4184080;85;28491;-85
2022/07/27 04:59:51;;;;;;;;;;;;;;;;;;4174105;84;28521;-82
2022/07/27 05:05:58;;;;;;;8.78;5.83;;;;;;;;;;4175230;84;20226;-83
2022/07/27 05:12:06;;;;;;;8.93;5.83;;;;;;;;;;4147111;84;28494;-84
2022/07/27 05:18:07;;;;;;;9.35;6.40;;;;;;;;;;4149313;84;28482;-83
2022/07/27 05:24:08;;;;;;;11.05;7.10;;;;;;;;;;4168712;84;28507;-84
2022/07/27 05:30:10;;;;;;;12.10;7.83;;;;;;;;;;4091705;85;28534;-86
2022/07/27 05:36:11;;;;;;;12.47;7.65;;;;;;;;;;4092919;85;28514;-89
2022/07/27 05:42:12;;;;;;;11.75;7.40;;;;;;;;;;4164615;84;28472;-92
2022/07/27 05:48:13;;;;;;;12.45;7.85;;;;;;;;;;4068466;86;28523;-89
2022/07/27 05:54:13;;;;;;;13.35;8.63;;;;;;;;;;4164426;84;28487;-89
2022/07/27 06:00:15;;;;;;;14.95;9.38;;;;;;;;;;4106269;85;28480;-89
2022/07/27 06:12:42;;;;;;;13.93;9.15;;;;;;;;;;4093445;85;28630;-87
2022/07/27 06:18:43;;;;;;;14.47;9.38;;;;;;;;;;4089561;85;28549;-90
2022/07/27 06:24:44;;;;;;;16.17;10.20;;;;;;;;;;4094930;85;28528;-89
2022/07/27 06:30:53;;;;;;;16.52;11.80;;;;;;;;;;4045112;86;28531;-86
2022/07/27 06:37:00;;;;;;;21.20;12.75;;;;;;;;;;4124736;85;28507;-82
2022/07/27 06:43:01;;;;;;;18.50;12.45;;;;;;;;;;4108789;85;28484;-81
2022/07/27 06:49:08;;;;;;;18.92;12.30;;;;;;;;;;4059586;86;28507;-83
2022/07/27 06:55:14;;;;;;;17.75;12.82;;;;;;;;;;4046341;87;28536;-85
2022/07/27 07:01:16;;;;;;;19.27;13.15;;;;;;;;;;4086677;85;28584;-81
2022/07/27 07:07:17;;;;;;;18.20;13.83;;;;;;;;;;4024212;86;28553;-82
2022/07/27 07:13:24;;;;;;;16.87;13.90;;;;;;;;;;4053779;86;28667;-81
2022/07/27 07:19:25;;;;;;;20.35;15.03;;;;;;;;;;4032450;87;28504;-81
2022/07/27 07:25:32;;;;;;;20.12;14.40;;;;;;;;;;4032442;87;28522;-83
2022/07/27 07:31:33;;;;;;;17.80;11.88;;;;;;;;;;4026168;86;28581;-83
2022/07/27 07:37:34;;;;;;;16.75;12.88;;;;;;;;;;4032767;87;28585;-83
2022/07/27 07:43:37;;;;;;;18.07;12.93;;;;;;;;;;4024288;87;28519;-81
2022/07/27 07:49:44;;;;;;;16.75;13.43;;;;;;;;;;4035604;87;28489;-81
2022/07/27 07:55:50;;;;;;;24.07;13.60;;;;;;;;;;4035366;87;28574;-83
2022/07/27 08:01:51;;;;;;;;;;;;;;;;;;4101814;85;28483;-84
2022/07/27 08:07:52;;;;;;;15.30;12.45;;;;;;;;;;4052062;86;20752;-84
2022/07/27 08:13:54;;;;;;;17.48;12.93;;;;;;;;;;4029264;87;28508;-82
2022/07/27 08:20:01;;;;;;;17.60;13.72;;;;;;;;;;4042287;87;28509;-82
2022/07/27 08:26:09;;;;;;;17.42;12.60;;;;;;;;;;4042248;86;28575;-81
2022/07/27 08:32:18;;;;;;;16.70;12.10;;;;;;;;;;4042118;87;28560;-80
2022/07/27 08:38:19;;;;;;;14.45;11.63;;;;;;;;;;4039283;87;28570;-81
2022/07/27 08:44:23;;;;;;;13.32;10.75;;;;;;;;;;4041727;86;28510;-79
2022/07/27 08:50:26;;;;;;;14.45;11.25;;;;;;;;;;4089624;85;28571;-80
2022/07/27 08:56:26;;;;;;;14.98;11.38;;;;;;;;;;4089092;85;28548;-80
2022/07/27 09:02:27;;;;;;;14.50;11.85;;;;;;;;;;4055906;86;28506;-80
2022/07/27 09:08:30;;;;;;;17.73;13.03;;;;;;;;;;4051123;86;28474;-78
2022/07/27 09:14:38;;;;;;;13.32;11.73;;;;;;;;;;4060015;86;28534;-82
2022/07/27 09:20:45;;;;;;;13.35;10.90;;;;;;;;;;4059998;86;28543;-79
2022/07/27 09:26:46;;;;;;;14.95;12.10;;;;;;;;;;4052966;86;28522;-82
2022/07/27 09:47:04;;;;;;;13.85;10.00;;;;;;;;;;4069178;86;28532;-78
2022/07/27 09:53:16;;;;;;;12.80;9.58;;;;;;;;;;4031256;86;28466;-79
2022/07/27 09:59:18;;;;;;;14.63;9.55;;;;;;;;;;4186728;83;28543;-78
2022/07/27 10:12:44;;;;;;;11.97;8.88;;;;;;;;;;4169928;83;28527;-80
2022/07/27 10:19:03;;;;;;;12.58;8.98;;;;;;;;;;4243536;82;28592;-80
2022/07/27 10:25:10;;;;;;;12.98;9.98;;;;;;;;;;4234240;82;28517;-80
2022/07/27 10:31:16;;;;;;;11.73;9.40;;;;;;;;;;4251918;82;28549;-79
2022/07/27 10:37:19;;;;;;;11.25;9.18;;;;;;;;;;4242530;82;28560;-79
2022/07/27 10:43:21;;;;;;;12.18;8.88;;;;;;;;;;4086706;85;28561;-81
2022/07/27 10:49:26;;;;;;;13.00;10.95;;;;;;;;;;4158525;84;28563;-81
2022/07/27 10:55:35;;;;;;;13.58;10.05;;;;;;;;;;4238103;82;28536;-80
2022/07/27 11:01:38;;;;;;;10.03;8.43;;;;;;;;;;4241381;82;28866;-81
2022/07/27 11:07:49;;;;;;;11.40;8.48;;;;;;;;;;4243394;82;28533;-81
2022/07/27 11:13:59;;;;;;;8.70;7.40;;;;;;;;;;4247145;82;28552;-81
2022/07/27 11:20:06;;;;;;;7.92;6.50;;;;;;;;;;4257559;82;28559;-81
2022/07/27 11:26:07;;;;;;;8.00;6.55;;;;;;;;;;4259360;82;28857;-85
2022/07/27 11:32:16;;;;;;;32.63;15.45;;;;;;;;;;4259104;82;28501;-86
2022/07/27 11:38:22;;;;;;;16.07;8.90;;;;;;;;;;4249855;82;28493;-80
2022/07/27 11:44:24;;;;;;;12.73;7.33;;;;;;;;;;4257980;82;28548;-81
2022/07/27 11:50:30;;;;;;;13.18;8.35;;;;;;;;;;4257590;82;28520;-83
2022/07/27 11:56:39;;;;;;;7.83;5.80;;;;;;;;;;4257958;83;28473;-84
2022/07/27 12:16:50;;;;;;;7.62;5.78;;;;;;;;;;4242972;82;28581;-83
2022/07/27 12:22:58;;;;;;;7.30;6.08;;;;;;;;;;4231795;82;28469;-82
2022/07/27 12:36:10;;;;;;;7.30;5.20;;;;;;;;;;4245878;82;28548;-83
2022/07/27 12:42:11;;;;;;;8.03;5.47;;;;;;;;;;4249560;82;28551;-82
2022/07/27 12:48:20;;;;;;;7.90;5.78;;;;;;;;;;4215078;82;28507;-83
2022/07/27 12:54:27;;;;;;;7.30;5.30;;;;;;;;;;4245748;82;28591;-84
2022/07/27 13:00:29;;;;;;;9.83;5.60;;;;;;;;;;4248245;82;28567;-81
2022/07/27 13:06:30;;;;;;;7.53;4.85;;;;;;;;;;4262806;82;28603;-82
2022/07/27 13:12:31;;;;;;;5.20;4.70;;;;;;;;;;4256227;82;28544;-81
2022/07/27 13:18:32;;;;;;;8.15;5.00;;;;;;;;;;4252232;82;28540;-80
2022/07/27 13:24:33;;;;;;;5.83;4.78;;;;;;;;;;4249198;82;28479;-81
2022/07/27 13:30:40;;;;;;;6.55;4.08;;;;;;;;;;4250411;82;28588;-82
2022/07/27 13:36:41;;;;;;;7.50;4.60;;;;;;;;;;4245252;82;28628;-82
2022/07/27 13:42:42;;;;;;;6.53;4.90;;;;;;;;;;4249940;82;28630;-83
2022/07/27 13:48:49;;;;;;;7.10;4.37;;;;;;;;;;4251221;82;28516;-82
2022/07/27 13:54:50;;;;;;;8.33;4.17;;;;;;;;;;4250655;82;28586;-81
2022/07/27 14:00:57;;;;;;;5.70;4.45;;;;;;;;;;4246844;82;28540;-81
2022/07/27 14:06:58;;;;;;;7.12;4.30;;;;;;;;;;4249346;82;28530;-79
2022/07/27 14:13:05;;;;;;;5.12;4.35;;;;;;;;;;4255356;82;28499;-81
2022/07/27 14:19:13;;;;;;;6.90;4.55;;;;;;;;;;4237893;82;28560;-82
2022/07/27 14:25:13;;;;;;;8.73;4.65;;;;;;;;;;4251104;82;28509;-82
2022/07/27 14:31:14;;;;;;;5.08;4.37;;;;;;;;;;4225202;82;28516;-82
2022/07/27 14:37:22;;;;;;;6.62;4.37;;;;;;;;;;4228304;82;28525;-80
2022/07/27 14:43:23;;;;;;;6.28;4.28;;;;;;;;;;4244257;82;28549;-79
2022/07/27 14:49:24;;;;;;;7.03;4.58;;;;;;;;;;4233858;82;28552;-80
2022/07/27 14:55:25;;;;;;;8.60;4.92;;;;;;;;;;4242805;82;28550;-84
2022/07/27 15:01:26;;;;;;;8.55;5.45;;;;;;;;;;4252716;82;28521;-81
2022/07/27 15:07:27;;;;;;;10.45;5.30;;;;;;;;;;4235443;82;28503;-77
2022/07/27 15:13:28;;;;;;;6.83;5.10;;;;;;;;;;4243419;82;28583;-78
2022/07/27 15:19:29;;;;;;;7.20;5.28;;;;;;;;;;4254742;83;28564;-78
2022/07/27 15:25:29;;;;;;;6.53;5.10;;;;;;;;;;4256541;82;28532;-78
2022/07/27 15:31:30;;;;;;;7.12;4.80;;;;;;;;;;4255948;82;28562;-77
2022/07/27 15:37:31;;;;;;;8.50;5.50;;;;;;;;;;4256375;83;28524;-77
2022/07/27 15:43:33;;;;;;;6.55;5.15;;;;;;;;;;4255993;82;28526;-78
2022/07/27 15:49:41;;;;;;;7.60;5.33;;;;;;;;;;4256244;82;28542;-78
2022/07/27 15:55:50;;;;;;;9.78;5.22;;;;;;;;;;4253982;83;28528;-79
2022/07/27 16:01:51;;;;;;;7.60;5.40;;;;;;;;;;4223633;83;28525;-77
2022/07/27 16:07:59;;;;;;;8.60;5.67;;;;;;;;;;4258855;82;28532;-77
2022/07/27 16:14:06;;;;;;;7.22;5.20;;;;;;;;;;4256921;82;28537;-77
2022/07/27 16:20:13;;;;;;;7.95;5.90;;;;;;;;;;4253440;82;28572;-81
2022/07/27 16:26:14;;;;;;;7.03;5.55;;;;;;;;;;4258261;82;28562;-81
2022/07/27 16:32:23;;;;;;;6.60;5.55;;;;;;;;;;4260719;82;28575;-81
2022/07/27 16:38:24;;;;;;;7.78;5.15;;;;;;;;;;4262604;82;28529;-82
2022/07/27 16:44:25;;;;;;;6.05;4.87;;;;;;;;;;4224728;82;28540;-81
2022/07/27 16:50:26;;;;;;;7.12;4.78;;;;;;;;;;4254581;82;28543;-82
2022/07/27 16:56:27;;;;;;;5.83;5.00;;;;;;;;;;4173434;84;28553;-84
2022/07/27 17:02:34;;;;;;;6.70;4.97;;;;;;;;;;4243097;82;28506;-85
2022/07/27 17:08:35;;;;;;;6.37;5.55;;;;;;;;;;4250335;82;28485;-84
2022/07/27 17:14:36;;;;;;;6.95;5.15;;;;;;;;;;4251772;82;28458;-85
2022/07/27 17:20:36;;;;;;;7.53;4.80;;;;;;;;;;4246720;82;28560;-84
2022/07/27 17:26:37;;;;;;;6.92;4.95;;;;;;;;;;4251818;82;28519;-84
2022/07/27 17:32:38;;;;;;;6.22;4.95;;;;;;;;;;4253032;82;28514;-84
2022/07/27 17:38:39;;;;;;;8.88;5.80;;;;;;;;;;4262751;82;28496;-84
2022/07/27 17:44:40;;;;;;;6.78;5.83;;;;;;;;;;4257321;82;28485;-83
2022/07/27 17:50:47;;;;;;;7.12;5.35;;;;;;;;;;4258484;82;28475;-84
2022/07/27 17:56:53;;;;;;;8.10;6.33;;;;;;;;;;4257595;82;28605;-84
2022/07/27 18:02:59;;;;;;;8.30;6.45;;;;;;;;;;4255191;82;28754;-84
2022/07/27 18:09:06;;;;;;;14.07;10.78;;;;;;;;;;4244082;82;28516;-84
2022/07/27 18:21:33;;;;;;;9.03;4.42;;;;;;;;;;4258778;83;28501;-85
2022/07/27 18:27:41;;;;;;;6.15;4.00;;;;;;;;;;4255833;82;28544;-83
2022/07/27 18:33:53;;;;;;;3.45;2.30;;;;;;;;;;4255205;82;28528;-86
2022/07/27 18:39:54;;;;;;;2.98;2.10;;;;;;;;;;4258016;82;28469;-84
2022/07/27 18:45:55;;;;;;;5.85;2.35;;;;;;;;;;4267304;82;28540;-81
2022/07/27 18:51:56;;;;;;;4.33;1.90;;;;;;;;;;4257742;82;28543;-82
2022/07/27 18:57:58;;;;;;;3.17;1.85;;;;;;;;;;4254893;82;28536;-82
2022/07/27 19:03:59;;;;;;;3.25;1.70;;;;;;;;;;4252705;82;28555;-82
2022/07/27 19:10:00;;;;;;;5.30;2.00;;;;;;;;;;4255721;82;28580;-79
2022/07/27 19:16:02;;;;;;;3.98;1.90;;;;;;;;;;4256318;82;28503;-81
2022/07/27 19:22:09;;;;;;;10.70;2.10;;;;;;;;;;4257652;83;29035;-85
2022/07/27 19:28:13;;;;;;;6.53;2.25;;;;;;;;;;4257530;82;28520;-83
2022/07/27 19:34:14;;;;;;;3.40;2.10;;;;;;;;;;4253786;82;28535;-85
2022/07/27 19:40:15;;;;;;;3.33;1.92;;;;;;;;;;4257505;82;28543;-83
2022/07/27 19:46:23;;;;;;;4.08;1.75;;;;;;;;;;4258370;82;28524;-83
2022/07/27 19:52:24;;;;;;;4.22;1.65;;;;;;;;;;4246681;83;28555;-85
2022/07/27 19:58:30;;;;;;;2.40;2.10;;;;;;;;;;4257545;82;28445;-81
2022/07/27 20:04:31;;;;;;;3.62;2.55;;;;;;;;;;4256467;82;28536;-81
2022/07/27 20:10:32;;;;;;;5.28;2.40;;;;;;;;;;4261415;82;28498;-84
2022/07/27 20:16:36;;;;;;;3.30;2.27;;;;;;;;;;4086854;85;28601;-81
2022/07/27 20:22:43;;;;;;;2.95;2.20;;;;;;;;;;4092103;85;28490;-82
2022/07/27 20:28:52;;;;;;;4.80;2.50;;;;;;;;;;4101394;85;28519;-81
2022/07/27 20:35:00;;;;;;;2.62;1.98;;;;;;;;;;4086908;85;28518;-85
2022/07/27 20:41:07;;;;;;;3.40;2.00;;;;;;;;;;4092067;85;28552;-83
2022/07/27 20:47:13;;;;;;;4.90;2.35;;;;;;;;;;4101058;85;28533;-83
2022/07/27 20:53:20;;;;;;;3.65;1.87;;;;;;;;;;4083772;85;28495;-84
2022/07/27 20:59:28;;;;;;;4.30;2.08;;;;;;;;;;4090631;85;28588;-83
2022/07/27 21:05:35;;;;;;;4.25;2.37;;;;;;;;;;4089703;85;28537;-83
2022/07/27 21:11:37;;;;;;;4.83;2.83;;;;;;;;;;4115803;85;28518;-86
2022/07/27 21:17:38;;;;;;;4.45;2.20;;;;;;;;;;4110257;85;28464;-84
2022/07/27 21:30:11;;;;;;;4.05;2.50;;;;;;;;;;4126531;85;28540;-85
2022/07/27 21:36:21;;;;;;;4.97;2.20;;;;;;;;;;4126246;85;28530;-82
2022/07/27 21:42:22;;;;;;;4.05;2.83;;;;;;;;;;4128542;84;28503;-84
2022/07/27 21:48:28;;;;;;;3.50;2.58;;;;;;;;;;4120966;85;28553;-82
2022/07/27 21:54:29;;;;;;;3.85;2.70;;;;;;;;;;4124029;84;28541;-85
2022/07/27 22:00:37;;;;;;;4.00;2.60;;;;;;;;;;4125998;85;28463;-84
2022/07/27 22:06:44;;;;;;;3.72;2.50;;;;;;;;;;4130633;84;28538;-84
2022/07/27 22:12:50;;;;;;;5.15;2.62;;;;;;;;;;4125170;85;28537;-84
2022/07/27 22:18:51;;;;;;;4.37;2.77;;;;;;;;;;4125767;85;28511;-83
2022/07/27 22:24:57;;;;;;;5.00;2.55;;;;;;;;;;4127557;85;28518;-84
2022/07/27 22:30:58;;;;;;;4.30;2.62;;;;;;;;;;4269679;82;28453;-82
2022/07/27 22:37:04;;;;;;;3.17;2.70;;;;;;;;;;4269746;82;28501;-82
2022/07/27 22:43:12;;;;;;;4.58;2.70;;;;;;;;;;4258039;82;28528;-82
2022/07/27 22:49:24;;;;;;;3.95;3.08;;;;;;;;;;4174183;84;28545;-82
2022/07/27 22:55:23;;;;;;;3.70;2.47;;;;;;;;;;4241983;82;28560;-81
2022/07/27 23:01:24;;;;;;;3.30;2.40;;;;;;;;;;4259880;82;28484;-82
2022/07/27 23:07:30;;;;;;;3.65;2.08;;;;;;;;;;4260278;82;28512;-81
2022/07/27 23:13:31;;;;;;;2.98;2.15;;;;;;;;;;4259875;82;28461;-81
2022/07/27 23:19:34;;;;;;;4.83;1.60;;;;;;;;;;4242396;82;28523;-83
2022/07/27 23:25:37;;;;;;;4.47;1.70;;;;;;;;;;4263835;82;28545;-82
2022/07/27 23:31:38;;;;;;;3.37;1.50;;;;;;;;;;4254474;82;28590;-82
2022/07/27 23:37:39;;;;;;;4.08;1.67;;;;;;;;;;4260997;82;28521;-82
2022/07/27 23:43:39;;;;;;;6.03;1.70;;;;;;;;;;4245253;82;28571;-82
2022/07/27 23:49:40;;;;;;;2.85;1.20;;;;;;;;;;4228887;82;28505;-81
2022/07/27 23:55:41;;;;;;;4.65;1.40;;;;;;;;;;4249461;82;28453;-83
